Time;durP1;ratioP1;P1;durP2;ratioP2;P2;SDS_P1;SDS_P2;PMS_P1;PMS_P2;Temp;Humidity;BMP_temperature;BMP_pressure;BME280_temperature;BME280_humidity;BME280_pressure;Samples;Min_cycle;Max_cycle;Signal;HPM_P1;HPM_P2
2021/10/11 00:02:31;;;;;;;13.77;7.45;;;;;;;12.31;100.00;102519.25;10499118;28;20056;-60
2021/10/11 00:07:34;;;;;;;20.48;8.02;;;;;;;12.33;100.00;102529.69;10498708;28;20399;-61
2021/10/11 00:12:37;;;;;;;15.98;6.78;;;;;;;12.44;100.00;102532.78;10498846;28;20052;-61
2021/10/11 00:17:39;;;;;;;12.27;6.30;;;;;;;12.30;100.00;102527.19;10498439;28;20051;-60
2021/10/11 00:22:42;;;;;;;12.82;5.65;;;;;;;12.42;100.00;102526.72;10498676;28;20439;-60
2021/10/11 00:27:44;;;;;;;13.32;5.60;;;;;;;12.52;100.00;102535.97;10498502;28;20056;-62
2021/10/11 00:32:47;;;;;;;14.20;6.10;;;;;;;12.28;100.00;102537.75;10498014;28;20047;-63
2021/10/11 00:37:49;;;;;;;21.05;7.03;;;;;;;12.34;100.00;102532.28;10498049;28;20385;-61
2021/10/11 00:42:51;;;;;;;20.02;5.85;;;;;;;12.37;100.00;102536.53;10498181;28;20055;-62
2021/10/11 00:47:54;;;;;;;15.30;6.32;;;;;;;12.27;100.00;102534.28;10497844;28;20399;-59
2021/10/11 00:52:57;;;;;;;8.68;5.57;;;;;;;12.25;100.00;102535.22;10499465;28;20051;-60
2021/10/11 00:57:59;;;;;;;16.13;4.53;;;;;;;12.25;100.00;102536.09;10488678;28;20053;-61
2021/10/11 01:03:01;;;;;;;9.07;4.70;;;;;;;12.07;100.00;102527.13;10506364;28;20056;-60
2021/10/11 01:08:04;;;;;;;9.90;4.28;;;;;;;11.86;100.00;102528.69;10506038;28;20044;-60
2021/10/11 01:13:07;;;;;;;5.50;4.07;;;;;;;12.06;100.00;102524.53;10505608;28;20563;-59
2021/10/11 01:18:09;;;;;;;11.40;4.97;;;;;;;11.79;100.00;102518.47;10505288;28;20508;-60
2021/10/11 01:23:12;;;;;;;14.43;5.80;;;;;;;11.67;100.00;102509.28;10505427;28;20052;-60
2021/10/11 01:28:14;;;;;;;14.85;5.28;;;;;;;11.85;100.00;102511.25;10505158;28;20059;-61
2021/10/11 01:33:16;;;;;;;10.95;5.88;;;;;;;11.80;100.00;102504.44;10505065;28;20047;-59
2021/10/11 01:38:19;;;;;;;10.60;5.63;;;;;;;11.87;100.00;102501.53;10504698;28;20404;-60
2021/10/11 01:43:21;;;;;;;10.95;5.10;;;;;;;11.52;100.00;102511.50;10504229;28;20059;-61
2021/10/11 01:48:24;;;;;;;13.65;5.97;;;;;;;11.84;100.00;102514.78;10504773;28;20041;-62
2021/10/11 01:53:51;;;;;;;15.95;7.22;;;;;;;11.71;100.00;102514.34;10504011;28;20053;-60
2021/10/11 01:58:54;;;;;;;18.02;6.82;;;;;;;11.85;100.00;102511.25;10504087;28;20052;-60
2021/10/11 02:03:56;;;;;;;17.10;6.38;;;;;;;11.91;100.00;102515.44;10502583;28;20507;-61
2021/10/11 02:08:58;;;;;;;18.15;7.35;;;;;;;11.98;100.00;102530.06;10504041;28;20044;-62
2021/10/11 02:14:01;;;;;;;14.90;7.85;;;;;;;12.00;100.00;102527.38;10503237;28;20079;-61
2021/10/11 02:19:03;;;;;;;16.27;6.55;;;;;;;11.82;100.00;102534.13;10503131;28;20049;-59
2021/10/11 02:24:06;;;;;;;19.15;6.97;;;;;;;11.91;100.00;102536.44;10503120;28;20055;-62
2021/10/11 02:29:09;;;;;;;16.02;5.85;;;;;;;11.92;100.00;102532.03;10502904;28;20048;-61
2021/10/11 02:34:12;;;;;;;14.93;5.25;;;;;;;11.87;100.00;102527.78;10502538;28;20044;-60
2021/10/11 02:39:14;;;;;;;13.23;5.18;;;;;;;11.81;100.00;102525.38;10502548;28;20048;-64
2021/10/11 02:44:16;;;;;;;19.30;5.00;;;;;;;11.73;100.00;102529.19;10502696;28;20044;-60
2021/10/11 02:49:18;;;;;;;13.90;5.47;;;;;;;11.86;100.00;102538.34;10501900;28;20055;-62
2021/10/11 02:54:21;;;;;;;15.40;4.53;;;;;;;11.85;100.00;102542.75;10501801;28;20056;-62
2021/10/11 02:59:23;;;;;;;11.02;4.03;;;;;;;11.68;100.00;102540.69;10501626;28;20047;-61
2021/10/11 03:04:25;;;;;;;21.65;5.15;;;;;;;11.68;100.00;102539.81;10483596;28;20049;-61
2021/10/11 03:09:28;;;;;;;15.05;4.38;;;;;;;11.56;100.00;102538.47;10501476;28;20040;-61
2021/10/11 03:14:31;;;;;;;13.77;4.97;;;;;;;11.48;100.00;102533.50;10500878;28;20045;-62
2021/10/11 03:19:34;;;;;;;17.77;4.63;;;;;;;11.61;100.00;102520.81;10500451;28;20510;-59
2021/10/11 03:24:36;;;;;;;12.30;4.10;;;;;;;11.40;100.00;102519.78;10500384;28;20048;-61
2021/10/11 03:29:38;;;;;;;10.20;3.80;;;;;;;11.30;100.00;102510.53;10500163;28;20052;-61
2021/10/11 03:34:41;;;;;;;12.73;3.40;;;;;;;11.13;100.00;102498.81;10499811;28;20056;-60
2021/10/11 03:39:43;;;;;;;9.48;3.40;;;;;;;11.02;100.00;102490.44;10500112;28;20047;-61
2021/10/11 03:44:45;;;;;;;7.70;2.67;;;;;;;11.04;100.00;102491.22;10499641;28;20055;-60
2021/10/11 03:49:48;;;;;;;10.93;2.97;;;;;;;10.94;100.00;102481.94;10499553;28;20403;-62
2021/10/11 03:54:50;;;;;;;16.30;2.80;;;;;;;11.01;100.00;102501.84;10499340;28;20044;-64
2021/10/11 03:59:52;;;;;;;15.70;3.05;;;;;;;10.82;100.00;102498.91;10499401;28;20044;-64
2021/10/11 04:04:55;;;;;;;12.02;3.60;;;;;;;10.93;100.00;102522.19;10498960;28;20511;-60
2021/10/11 04:10:00;;;;;;;8.55;2.88;;;;;;;10.91;100.00;102513.50;10481245;28;20499;-60
2021/10/11 04:15:05;;;;;;;19.33;4.20;;;;;;;10.80;100.00;102513.00;10498638;28;20044;-63
2021/10/11 04:20:08;;;;;;;9.95;3.72;;;;;;;10.67;100.00;102518.59;10498585;28;20400;-64
2021/10/11 04:25:11;;;;;;;11.25;2.80;;;;;;;10.49;100.00;102516.53;10498533;28;20394;-60
2021/10/11 04:30:13;;;;;;;17.33;2.90;;;;;;;10.46;100.00;102519.25;10497678;28;20476;-60
2021/10/11 04:35:15;;;;;;;11.73;2.50;;;;;;;10.37;100.00;102512.50;10498152;28;20504;-61
2021/10/11 04:40:19;;;;;;;15.20;2.67;;;;;;;10.23;100.00;102521.56;10498274;28;20052;-63
2021/10/11 04:45:27;;;;;;;14.07;2.63;;;;;;;10.29;100.00;102524.91;10497730;28;20484;-63
2021/10/11 04:50:31;;;;;;;15.25;2.95;;;;;;;10.12;100.00;102522.78;10498003;28;20048;-61
2021/10/11 04:55:34;;;;;;;14.55;2.97;;;;;;;9.92;100.00;102511.13;10498142;28;20048;-61
2021/10/11 05:00:36;;;;;;;14.68;3.22;;;;;;;9.98;100.00;102513.56;10497883;28;20051;-60
2021/10/11 05:05:39;;;;;;;13.88;3.65;;;;;;;9.88;100.00;102519.09;10497307;28;20492;-61
2021/10/11 05:10:42;;;;;;;15.35;3.25;;;;;;;9.74;100.00;102522.94;10497745;28;20377;-59
2021/10/11 05:15:44;;;;;;;9.68;3.05;;;;;;;9.74;100.00;102515.06;10497308;28;20051;-61
2021/10/11 05:20:50;;;;;;;11.32;3.28;;;;;;;9.55;100.00;102519.06;10497438;28;20053;-63
2021/10/11 05:25:52;;;;;;;12.15;3.03;;;;;;;9.54;100.00;102527.81;10497278;28;20059;-60
2021/10/11 05:30:54;;;;;;;8.88;2.85;;;;;;;9.34;100.00;102499.56;10496954;28;20041;-60
2021/10/11 05:35:57;;;;;;;12.93;3.40;;;;;;;9.30;100.00;102504.00;10479215;28;20048;-60
2021/10/11 05:41:00;;;;;;;11.23;2.90;;;;;;;9.34;100.00;102517.84;10502278;28;20056;-60
2021/10/11 05:46:02;;;;;;;9.25;3.67;;;;;;;9.35;100.00;102517.81;10504328;28;20056;-60
2021/10/11 05:51:05;;;;;;;13.75;3.30;;;;;;;9.46;100.00;102525.38;10504231;28;20051;-61
2021/10/11 05:56:07;;;;;;;15.52;3.42;;;;;;;9.42;100.00;102536.84;10486144;28;20513;-60
2021/10/11 06:01:10;;;;;;;15.10;4.05;;;;;;;9.46;100.00;102536.72;10503990;28;20060;-59
2021/10/11 06:06:13;;;;;;;12.40;3.10;;;;;;;9.44;100.00;102528.03;10486046;28;20050;-61
2021/10/11 06:11:17;;;;;;;7.60;3.08;;;;;;;9.43;100.00;102530.69;10503376;28;20045;-61
2021/10/11 06:16:19;;;;;;;14.32;2.97;;;;;;;9.43;100.00;102531.56;10503817;28;20052;-61
2021/10/11 06:21:21;;;;;;;11.75;2.88;;;;;;;9.43;100.00;102531.56;10503156;28;20059;-61
2021/10/11 06:26:24;;;;;;;12.35;2.95;;;;;;;9.66;100.00;102546.66;10503539;28;20052;-62
2021/10/11 06:31:26;;;;;;;15.70;3.47;;;;;;;9.74;100.00;102553.47;10502633;28;20067;-58
2021/10/11 06:36:29;;;;;;;10.20;3.45;;;;;;;9.84;100.00;102549.72;10502520;28;20419;-61
2021/10/11 06:41:31;;;;;;;15.25;4.20;;;;;;;9.82;100.00;102543.66;10502467;28;20055;-59
2021/10/11 06:46:34;;;;;;;13.48;3.80;;;;;;;9.95;100.00;102538.94;10502012;28;20064;-60
2021/10/11 06:51:36;;;;;;;11.88;3.42;;;;;;;9.99;100.00;102553.69;10501089;28;20052;-62
2021/10/11 06:56:38;;;;;;;11.98;3.42;;;;;;;10.24;100.00;102556.47;10501714;28;20511;-59
2021/10/11 07:01:43;;;;;;;19.38;3.90;;;;;;;10.26;100.00;102551.22;10501542;28;20496;-62
2021/10/11 07:07:06;;;;;;;17.40;5.53;;;;;;;10.23;100.00;102553.00;10501131;28;20447;-63
2021/10/11 07:12:08;;;;;;;15.35;3.33;;;;;;;10.46;100.00;102558.53;10501061;28;20075;-59
2021/10/11 07:17:11;;;;;;;12.82;3.78;;;;;;;10.39;100.00;102569.16;10500961;28;20048;-59
2021/10/11 07:22:14;;;;;;;12.52;3.17;;;;;;;10.54;100.00;102569.63;10500730;28;20059;-59
2021/10/11 07:27:17;;;;;;;11.57;2.97;;;;;;;10.70;100.00;102578.75;10500521;28;20059;-62
2021/10/11 07:32:19;;;;;;;12.65;3.20;;;;;;;10.87;100.00;102588.72;10482319;28;20049;-62
2021/10/11 07:37:22;;;;;;;20.27;3.65;;;;;;;10.69;100.00;102590.16;10500127;28;20052;-61
2021/10/11 07:42:24;;;;;;;18.25;3.92;;;;;;;10.77;100.00;102592.53;10500276;28;20045;-61
2021/10/11 07:47:26;;;;;;;12.10;3.20;;;;;;;10.76;100.00;102594.31;10499482;28;20408;-60
2021/10/11 07:52:29;;;;;;;13.23;3.85;;;;;;;10.96;100.00;102604.19;10497275;28;20516;-59
2021/10/11 07:57:34;;;;;;;10.23;3.85;;;;;;;11.01;100.00;102603.19;10496474;28;20055;-59
2021/10/11 08:02:37;;;;;;;13.57;3.53;;;;;;;10.86;100.00;102612.34;10478322;28;20063;-60
2021/10/11 08:07:40;;;;;;;13.00;3.80;;;;;;;10.90;100.00;102620.09;10497839;28;20044;-60
2021/10/11 08:12:42;;;;;;;13.48;4.70;;;;;;;10.99;100.00;102621.56;10498791;28;20049;-58
2021/10/11 08:17:44;;;;;;;12.18;3.72;;;;;;;11.11;100.00;102615.09;10498784;28;20048;-60
2021/10/11 08:22:47;;;;;;;10.68;4.03;;;;;;;11.12;100.00;102614.19;10498443;28;20055;-58
2021/10/11 08:27:49;;;;;;;19.58;3.70;;;;;;;11.29;100.00;102611.06;10500166;28;20057;-60
2021/10/11 08:32:51;;;;;;;12.07;3.80;;;;;;;11.41;100.00;102613.28;10498123;28;20048;-61
2021/10/11 08:37:54;;;;;;;12.57;3.55;;;;;;;11.93;100.00;102618.59;10498283;28;20485;-59
2021/10/11 08:42:57;;;;;;;11.57;3.83;;;;;;;11.91;100.00;102623.06;10497976;28;20052;-59
2021/10/11 08:47:59;;;;;;;15.40;3.25;;;;;;;11.82;100.00;102620.72;10497951;28;20055;-61
2021/10/11 08:53:03;;;;;;;9.18;4.20;;;;;;;12.10;100.00;102617.19;10497829;28;20047;-60
2021/10/11 08:58:08;;;;;;;13.10;3.17;;;;;;;11.79;100.00;102633.94;10497708;28;20507;-61
2021/10/11 09:03:16;;;;;;;10.25;3.22;;;;;;;12.12;100.00;102625.84;10497932;28;20052;-60
2021/10/11 09:08:19;;;;;;;15.02;4.28;;;;;;;12.25;100.00;102628.00;10497642;28;20071;-61
2021/10/11 09:13:30;;;;;;;11.88;3.83;;;;;;;12.38;100.00;102624.94;10498070;28;20048;-61
2021/10/11 09:18:34;;;;;;;11.13;3.65;;;;;;;12.34;100.00;102615.44;10505759;28;20487;-59
2021/10/11 09:23:37;;;;;;;13.02;3.65;;;;;;;12.89;100.00;102600.25;10505449;28;20052;-60
2021/10/11 09:28:53;;;;;;;16.90;3.38;;;;;;;13.23;100.00;102620.00;10507123;28;20423;-59
2021/10/11 09:34:02;;;;;;;12.88;3.17;;;;;;;13.44;100.00;102628.81;10504435;28;20102;-62
2021/10/11 09:39:04;;;;;;;10.82;3.40;;;;;;;13.37;100.00;102630.00;10504559;28;20040;-60
2021/10/11 09:44:13;;;;;;;8.98;3.55;;;;;;;13.34;100.00;102632.75;10502005;28;20062;-60
2021/10/11 09:49:15;;;;;;;16.88;4.30;;;;;;;13.44;100.00;102630.59;10504757;28;20055;-60
2021/10/11 09:54:18;;;;;;;16.00;4.25;;;;;;;13.22;100.00;102634.06;10503904;28;20040;-60
2021/10/11 09:59:20;;;;;;;14.27;3.88;;;;;;;13.49;100.00;102626.84;10486676;28;20079;-60
2021/10/11 10:04:29;;;;;;;14.85;4.03;;;;;;;13.52;100.00;102621.47;10486023;28;20055;-59
2021/10/11 10:09:33;;;;;;;13.63;3.15;;;;;;;13.92;99.09;102622.47;10486543;28;20063;-59
2021/10/11 10:14:36;;;;;;;7.60;3.05;;;;;;;14.06;99.14;102619.22;10485917;28;20056;-61
2021/10/11 10:19:40;;;;;;;13.60;3.47;;;;;;;13.78;98.53;102622.16;10503365;28;20057;-63
2021/10/11 10:24:43;;;;;;;11.75;4.07;;;;;;;14.24;98.83;102609.66;10500872;28;20055;-61
2021/10/11 10:29:47;;;;;;;19.38;3.85;;;;;;;13.67;99.51;102613.88;10502675;28;20051;-61
2021/10/11 10:35:08;;;;;;;12.55;3.40;;;;;;;14.13;98.24;102612.75;10484458;28;20049;-61
2021/10/11 10:40:13;;;;;;;16.05;3.47;;;;;;;14.05;97.19;102608.75;10484503;28;20052;-59
2021/10/11 10:45:17;;;;;;;12.15;3.40;;;;;;;14.41;95.55;102595.75;10502175;28;20054;-63
2021/10/11 10:50:24;;;;;;;11.10;2.85;;;;;;;15.35;94.02;102607.22;10484543;28;20059;-61
2021/10/11 10:55:27;;;;;;;10.38;2.72;;;;;;;15.95;89.59;102604.25;10501411;28;20052;-60
2021/10/11 11:00:29;;;;;;;7.85;2.65;;;;;;;15.90;91.77;102605.41;10502135;28;20055;-61
2021/10/11 11:05:32;;;;;;;16.33;3.13;;;;;;;15.43;91.59;102617.38;10501564;28;20063;-59
2021/10/11 11:10:37;;;;;;;14.60;4.38;;;;;;;15.90;87.86;102606.28;10501200;28;20044;-61
2021/10/11 11:15:51;;;;;;;14.35;4.03;;;;;;;15.02;88.42;102599.97;10500889;28;20053;-59
2021/10/11 11:20:56;;;;;;;14.70;3.50;;;;;;;16.43;84.64;102599.09;10501748;28;20054;-60
2021/10/11 11:26:04;;;;;;;7.07;2.40;;;;;;;16.77;84.89;102604.34;10500273;28;20404;-60
2021/10/11 11:31:10;;;;;;;10.27;2.10;;;;;;;16.77;82.18;102605.19;10500526;28;20044;-60
2021/10/11 11:36:13;;;;;;;11.07;3.08;;;;;;;15.97;83.59;102581.25;10500097;28;20114;-60
2021/10/11 11:41:15;;;;;;;10.60;2.55;;;;;;;17.67;77.88;102581.63;10500605;28;20055;-59
2021/10/11 11:46:18;;;;;;;9.05;2.17;;;;;;;17.51;77.92;102581.69;10498512;28;20135;-62
2021/10/11 11:51:20;;;;;;;7.72;2.20;;;;;;;16.69;78.41;102583.59;10499598;28;20471;-60
2021/10/11 11:56:24;;;;;;;15.75;4.18;;;;;;;17.84;73.92;102570.88;10499737;28;20045;-63
2021/10/11 12:01:30;;;;;;;6.85;2.42;;;;;;;18.16;68.09;102562.81;10499512;28;20048;-61
2021/10/11 12:06:34;;;;;;;11.80;2.25;;;;;;;17.17;69.29;102563.31;10482455;28;20127;-63
2021/10/11 12:11:37;;;;;;;6.13;2.00;;;;;;;17.45;72.52;102565.22;10481416;28;20044;-61
2021/10/11 12:16:39;;;;;;;9.27;1.77;;;;;;;16.88;69.88;102559.69;10465024;28;20053;-61
2021/10/11 12:21:42;;;;;;;6.63;1.98;;;;;;;17.05;73.95;102556.06;10480863;28;20420;-65
2021/10/11 12:34:14;;;;;;;9.73;2.85;;;;;;;16.01;77.42;102552.88;10567025;27;1483272;-64
2021/10/11 12:39:18;;;;;;;11.88;2.17;;;;;;;15.67;76.41;102543.16;10576645;28;20059;-63
2021/10/11 12:44:31;;;;;;;8.50;2.05;;;;;;;17.22;75.21;102548.00;10576446;28;20047;-61
2021/10/11 12:49:38;;;;;;;10.32;1.83;;;;;;;16.19;81.41;102547.53;10576116;28;20048;-60
2021/10/11 12:54:40;;;;;;;9.48;1.90;;;;;;;16.44;75.95;102542.66;10575831;28;20490;-60
2021/10/11 12:59:42;;;;;;;11.20;2.10;;;;;;;16.18;75.58;102525.56;10575434;28;20083;-61
2021/10/11 13:04:45;;;;;;;7.88;1.80;;;;;;;15.67;75.29;102529.97;10576334;28;20040;-61
2021/10/11 13:09:47;;;;;;;5.88;2.10;;;;;;;15.49;78.06;102531.78;10575488;28;20044;-60
2021/10/11 13:14:50;;;;;;;7.18;2.47;;;;;;;15.37;78.26;102534.09;10574878;28;20054;-61
2021/10/11 13:19:52;;;;;;;10.27;1.85;;;;;;;15.61;77.14;102529.34;10574728;28;20059;-60
2021/10/11 13:24:55;;;;;;;7.88;1.15;;;;;;;15.55;77.78;102544.63;10574893;28;20078;-61
2021/10/11 14:28:24;;;;;;;10.30;1.50;;;;;;;14.44;86.66;102527.09;10586721;28;20048;-60
2021/10/11 14:33:53;;;;;;;8.07;1.60;;;;;;;14.18;84.57;102523.00;10586631;28;20055;-61
2021/10/11 16:04:27;;;;;;;8.30;2.25;;;;;;;12.92;91.33;102494.13;10582321;28;20414;-63
2021/10/11 16:09:31;;;;;;;11.63;4.47;;;;;;;12.92;90.31;102494.13;10582285;28;20044;-64
2021/10/11 16:14:33;;;;;;;13.48;2.65;;;;;;;12.89;89.61;102496.88;10582366;28;20054;-65
2021/10/11 16:19:36;;;;;;;8.60;2.88;;;;;;;12.72;90.46;102490.53;10582372;28;20075;-63
2021/10/11 16:24:38;;;;;;;10.80;3.25;;;;;;;12.52;89.89;102483.41;10563886;28;20048;-63
2021/10/11 16:29:40;;;;;;;10.02;3.80;;;;;;;12.36;88.04;102504.16;10581828;28;20074;-63
2021/10/11 16:34:43;;;;;;;11.95;4.55;;;;;;;12.38;88.74;102504.13;10581745;28;20063;-63
2021/10/11 16:39:46;;;;;;;6.90;2.63;;;;;;;12.34;87.07;102497.25;10581433;28;20055;-62
2021/10/11 16:44:48;;;;;;;8.85;3.50;;;;;;;12.00;89.88;102498.50;10563719;28;20048;-63
2021/10/11 16:49:51;;;;;;;8.63;3.85;;;;;;;12.10;90.69;102502.50;10581472;28;20044;-64
2021/10/11 16:54:53;;;;;;;10.68;3.70;;;;;;;11.82;91.64;102505.25;10581425;28;20047;-63
2021/10/11 16:59:55;;;;;;;12.30;4.75;;;;;;;11.79;93.52;102513.22;10581285;28;20513;-64
2021/10/11 17:04:57;;;;;;;14.00;5.68;;;;;;;11.59;91.90;102512.16;10581207;28;20474;-63
2021/10/11 17:10:00;;;;;;;12.15;2.97;;;;;;;11.88;91.49;102520.75;10581042;28;20451;-63
2021/10/11 17:15:04;;;;;;;7.35;2.47;;;;;;;11.45;93.88;102523.13;10581364;28;20050;-63
2021/10/11 17:20:07;;;;;;;7.13;2.20;;;;;;;11.55;92.64;102517.53;10569425;28;20043;-63
2021/10/11 17:25:11;;;;;;;12.73;3.25;;;;;;;11.43;94.15;102524.06;10588771;28;20051;-63
2021/10/11 17:30:13;;;;;;;7.15;2.50;;;;;;;11.33;94.23;102519.13;10588695;28;20066;-64
2021/10/11 17:35:16;;;;;;;14.88;4.22;;;;;;;11.07;98.52;102533.06;10588491;28;20055;-63
2021/10/11 17:40:20;;;;;;;6.28;2.13;;;;;;;10.97;100.00;102527.25;10588361;28;20052;-63
2021/10/11 17:45:24;;;;;;;4.95;1.25;;;;;;;10.83;100.00;102529.47;10570408;28;20047;-65
2021/10/11 17:50:27;;;;;;;7.85;1.27;;;;;;;10.68;100.00;102536.03;10587803;28;20105;-63
2021/10/11 17:55:35;;;;;;;5.22;2.25;;;;;;;10.58;100.00;102529.34;10587880;28;20082;-64
2021/10/11 18:00:37;;;;;;;7.15;2.20;;;;;;;10.29;100.00;102536.28;10587442;28;20062;-63
2021/10/11 18:05:40;;;;;;;6.28;1.90;;;;;;;10.26;100.00;102532.88;10587580;28;20047;-63
2021/10/11 18:10:42;;;;;;;6.22;2.13;;;;;;;9.88;100.00;102517.31;10552292;28;20059;-65
2021/10/11 18:15:44;;;;;;;4.65;1.90;;;;;;;10.20;100.00;102528.66;10586887;28;20044;-63
2021/10/11 18:20:48;;;;;;;15.70;2.70;;;;;;;9.99;100.00;102527.50;10586484;28;20108;-63
2021/10/11 18:25:58;;;;;;;8.32;3.00;;;;;;;9.91;100.00;102526.84;10586971;28;20044;-63
2021/10/11 18:31:00;;;;;;;10.88;5.10;;;;;;;9.97;100.00;102532.78;10586177;28;20463;-63
2021/10/11 18:36:04;;;;;;;17.90;6.85;;;;;;;10.08;100.00;102529.88;10586556;28;20055;-64
2021/10/11 18:41:06;;;;;;;12.25;4.55;;;;;;;10.07;100.00;102520.31;10585594;28;20055;-63
2021/10/11 18:46:08;;;;;;;8.80;2.88;;;;;;;10.04;100.00;102528.25;10586004;28;20050;-64
2021/10/11 18:51:11;;;;;;;6.13;2.78;;;;;;;10.15;100.00;102520.09;10585516;28;20083;-63
2021/10/11 18:56:14;;;;;;;6.03;1.88;;;;;;;10.00;100.00;102524.84;10585053;28;20486;-63
2021/10/11 19:01:16;;;;;;;8.68;2.85;;;;;;;10.14;100.00;102521.00;10585675;28;20125;-63
2021/10/11 19:06:31;;;;;;;11.02;3.33;;;;;;;10.34;100.00;102515.19;10584803;28;20044;-63
2021/10/11 19:11:35;;;;;;;7.32;2.03;;;;;;;10.34;100.00;102513.47;10584707;28;20058;-63
2021/10/11 19:16:39;;;;;;;9.02;2.47;;;;;;;10.23;100.00;102511.09;10566389;28;20055;-63
2021/10/11 19:21:42;;;;;;;13.02;2.40;;;;;;;10.39;100.00;102506.34;10584277;28;20057;-63
2021/10/11 19:26:45;;;;;;;9.82;2.25;;;;;;;10.38;100.00;102504.59;10584937;28;20050;-63
2021/10/11 19:31:48;;;;;;;14.65;2.83;;;;;;;10.56;100.00;102510.22;10583895;28;20052;-63
2021/10/11 19:36:50;;;;;;;10.43;2.28;;;;;;;10.59;100.00;102500.50;10583691;28;20052;-62
2021/10/11 19:41:53;;;;;;;8.05;2.60;;;;;;;10.41;100.00;102490.56;10564791;28;20055;-63
2021/10/11 19:46:55;;;;;;;6.95;2.08;;;;;;;10.54;100.00;102498.91;10583151;28;20048;-62
2021/10/11 19:51:58;;;;;;;10.90;2.60;;;;;;;10.41;100.00;102501.91;10582673;28;20478;-63
2021/10/11 19:57:00;;;;;;;11.45;2.80;;;;;;;10.83;100.00;102518.16;10583267;28;20063;-63
2021/10/11 20:02:03;;;;;;;15.23;3.65;;;;;;;10.89;100.00;102517.94;10582886;28;20421;-63
2021/10/11 20:07:05;;;;;;;13.70;3.15;;;;;;;10.95;100.00;102523.00;10582650;28;20054;-64
2021/10/11 20:12:09;;;;;;;13.02;3.78;;;;;;;10.93;100.00;102509.94;10582748;28;20093;-64
2021/10/11 20:17:12;;;;;;;12.07;4.50;;;;;;;11.07;100.00;102508.63;10582285;28;20047;-62
2021/10/11 20:22:15;;;;;;;13.60;3.05;;;;;;;11.12;100.00;102515.44;10582244;28;20044;-63
2021/10/11 20:27:17;;;;;;;12.40;5.18;;;;;;;11.09;100.00;102510.28;10582453;28;20047;-63
2021/10/11 20:32:21;;;;;;;10.68;4.10;;;;;;;11.10;100.00;102514.63;10582008;28;20055;-63
2021/10/11 20:37:23;;;;;;;7.60;3.22;;;;;;;11.04;100.00;102491.22;10582216;28;20052;-63
2021/10/11 20:42:25;;;;;;;8.27;2.60;;;;;;;10.97;100.00;102490.56;10581708;28;20056;-63
2021/10/11 20:47:28;;;;;;;7.70;2.25;;;;;;;11.12;100.00;102496.25;10581795;28;20044;-63
2021/10/11 20:52:30;;;;;;;7.18;2.33;;;;;;;11.19;100.00;102492.50;10583941;28;20495;-63
2021/10/11 20:57:33;;;;;;;6.97;2.03;;;;;;;10.91;100.00;102476.81;10589887;28;20088;-64
2021/10/11 21:02:35;;;;;;;11.73;2.28;;;;;;;10.89;100.00;102481.25;10589926;28;20052;-63
2021/10/11 21:07:39;;;;;;;5.30;1.70;;;;;;;11.04;100.00;102483.38;10589445;28;20047;-63
2021/10/11 21:12:41;;;;;;;13.98;2.78;;;;;;;10.54;100.00;102484.06;10589430;28;20051;-63
2021/10/11 21:17:44;;;;;;;7.15;2.08;;;;;;;10.84;100.00;102483.16;10589256;28;20055;-63
2021/10/11 21:22:46;;;;;;;7.60;2.58;;;;;;;10.58;100.00;102484.84;10589162;28;20054;-62
2021/10/11 21:27:48;;;;;;;8.18;2.38;;;;;;;10.74;100.00;102493.94;10588731;28;20052;-62
2021/10/11 21:32:51;;;;;;;6.05;1.85;;;;;;;10.52;100.00;102488.50;10570193;28;20047;-63
2021/10/11 21:37:53;;;;;;;7.78;2.10;;;;;;;10.64;100.00;102482.03;10588153;28;20051;-64
2021/10/11 21:42:56;;;;;;;11.25;2.38;;;;;;;10.65;100.00;102478.50;10587939;28;20062;-63
2021/10/11 21:47:59;;;;;;;6.38;1.90;;;;;;;10.72;100.00;102477.38;10587696;28;20044;-63
2021/10/11 21:53:03;;;;;;;11.00;2.83;;;;;;;10.88;100.00;102471.69;10587871;28;20051;-63
2021/10/11 21:58:06;;;;;;;12.95;2.78;;;;;;;10.67;100.00;102478.44;10587592;28;20044;-63
2021/10/11 22:03:08;;;;;;;8.68;2.28;;;;;;;10.76;100.00;102473.78;10587706;28;20050;-64
2021/10/11 22:08:14;;;;;;;6.93;2.50;;;;;;;10.78;100.00;102461.47;10587188;28;20056;-63
2021/10/11 22:13:17;;;;;;;7.85;1.75;;;;;;;10.82;100.00;102441.28;10587317;28;20058;-63
2021/10/11 22:18:20;;;;;;;10.43;2.60;;;;;;;10.86;100.00;102436.78;10586797;28;20045;-63
2021/10/11 22:23:22;;;;;;;12.50;3.03;;;;;;;10.82;100.00;102446.53;10586775;28;20058;-64
2021/10/11 22:28:26;;;;;;;10.18;2.70;;;;;;;10.77;100.00;102436.19;10586221;28;20044;-63
2021/10/11 22:33:28;;;;;;;9.02;2.83;;;;;;;10.77;100.00;102420.47;10586087;28;20491;-64
2021/10/11 22:38:31;;;;;;;8.88;3.35;;;;;;;10.64;100.00;102432.25;10585848;28;20062;-63
2021/10/11 22:43:34;;;;;;;13.45;4.18;;;;;;;10.64;100.00;102434.88;10567879;28;20048;-65
2021/10/11 22:48:36;;;;;;;5.53;3.58;;;;;;;10.63;100.00;102420.06;10585453;28;20058;-64
2021/10/11 22:53:38;;;;;;;11.38;4.40;;;;;;;10.71;100.00;102419.84;10585285;28;20039;-64
2021/10/11 22:58:41;;;;;;;11.02;4.15;;;;;;;10.67;100.00;102424.28;10585907;28;20048;-63
2021/10/11 23:03:44;;;;;;;17.88;5.57;;;;;;;10.71;100.00;102425.06;10584739;28;20494;-61
2021/10/11 23:08:47;;;;;;;12.60;4.97;;;;;;;10.71;100.00;102419.84;10567313;28;20047;-62
2021/10/11 23:13:49;;;;;;;13.88;6.05;;;;;;;10.50;100.00;102410.88;10584935;28;20127;-61
2021/10/11 23:18:52;;;;;;;16.08;5.47;;;;;;;10.39;100.00;102408.59;10584178;28;20046;-59
2021/10/11 23:23:54;;;;;;;14.32;6.22;;;;;;;10.59;100.00;102397.47;10584801;28;20048;-61
2021/10/11 23:28:56;;;;;;;16.42;5.85;;;;;;;10.49;100.00;102396.94;10584050;28;20040;-60
2021/10/11 23:33:59;;;;;;;11.73;5.05;;;;;;;10.48;100.00;102383.88;10584155;28;20133;-60
2021/10/11 23:39:02;;;;;;;14.02;5.00;;;;;;;10.35;100.00;102380.78;10583447;28;20504;-59
2021/10/11 23:44:05;;;;;;;8.95;3.35;;;;;;;10.54;100.00;102375.81;10583575;28;20050;-61
2021/10/11 23:49:08;;;;;;;17.45;4.28;;;;;;;10.39;100.00;102374.56;10583215;28;20044;-60
2021/10/11 23:54:10;;;;;;;10.13;3.85;;;;;;;10.35;100.00;102372.94;10583091;28;20055;-61
2021/10/11 23:59:13;;;;;;;18.65;4.45;;;;;;;10.28;100.00;102374.84;10582634;28;20525;-59
